sensor_id;sensor_type;location;lat;lon;timestamp;P1;durP1;ratioP1;P2;durP2;ratioP2
47289;SDS011;33197;52.524;13.444;2022-10-31T00:01:11;38.33;;;20.17;;
47289;SDS011;33197;52.524;13.444;2022-10-31T00:03:47;37.03;;;17.70;;
47289;SDS011;33197;52.524;13.444;2022-10-31T00:06:14;38.10;;;20.35;;
47289;SDS011;33197;52.524;13.444;2022-10-31T00:08:51;32.83;;;19.88;;
47289;SDS011;33197;52.524;13.444;2022-10-31T00:11:19;37.75;;;21.40;;
47289;SDS011;33197;52.524;13.444;2022-10-31T00:13:46;42.10;;;21.35;;
47289;SDS011;33197;52.524;13.444;2022-10-31T00:16:17;31.95;;;20.13;;
47289;SDS011;33197;52.524;13.444;2022-10-31T00:18:49;29.38;;;17.85;;
47289;SDS011;33197;52.524;13.444;2022-10-31T00:21:21;33.22;;;19.08;;
47289;SDS011;33197;52.524;13.444;2022-10-31T00:23:48;32.90;;;19.08;;
47289;SDS011;33197;52.524;13.444;2022-10-31T00:26:16;33.22;;;18.88;;
47289;SDS011;33197;52.524;13.444;2022-10-31T00:28:43;32.28;;;18.48;;
47289;SDS011;33197;52.524;13.444;2022-10-31T00:31:11;34.72;;;18.40;;
47289;SDS011;33197;52.524;13.444;2022-10-31T00:33:39;31.05;;;18.77;;
47289;SDS011;33197;52.524;13.444;2022-10-31T00:36:07;26.88;;;17.15;;
47289;SDS011;33197;52.524;13.444;2022-10-31T00:38:37;29.67;;;17.50;;
47289;SDS011;33197;52.524;13.444;2022-10-31T00:41:04;29.60;;;17.20;;
47289;SDS011;33197;52.524;13.444;2022-10-31T00:43:31;27.83;;;18.50;;
47289;SDS011;33197;52.524;13.444;2022-10-31T00:45:58;28.30;;;16.95;;
47289;SDS011;33197;52.524;13.444;2022-10-31T00:48:25;27.80;;;16.88;;
47289;SDS011;33197;52.524;13.444;2022-10-31T00:50:52;28.10;;;16.58;;
47289;SDS011;33197;52.524;13.444;2022-10-31T00:53:20;31.73;;;18.42;;
47289;SDS011;33197;52.524;13.444;2022-10-31T00:55:47;28.83;;;17.52;;
47289;SDS011;33197;52.524;13.444;2022-10-31T00:58:14;26.98;;;16.52;;
47289;SDS011;33197;52.524;13.444;2022-10-31T01:00:41;29.90;;;16.10;;
47289;SDS011;33197;52.524;13.444;2022-10-31T01:03:13;31.98;;;15.70;;
47289;SDS011;33197;52.524;13.444;2022-10-31T01:05:40;31.75;;;16.88;;
47289;SDS011;33197;52.524;13.444;2022-10-31T01:08:08;35.45;;;15.65;;
47289;SDS011;33197;52.524;13.444;2022-10-31T01:10:35;27.63;;;15.57;;
47289;SDS011;33197;52.524;13.444;2022-10-31T01:13:02;24.73;;;15.10;;
47289;SDS011;33197;52.524;13.444;2022-10-31T01:15:29;27.67;;;16.48;;
47289;SDS011;33197;52.524;13.444;2022-10-31T01:17:56;22.23;;;15.23;;
47289;SDS011;33197;52.524;13.444;2022-10-31T01:20:24;28.65;;;16.35;;
47289;SDS011;33197;52.524;13.444;2022-10-31T01:22:51;28.70;;;16.15;;
47289;SDS011;33197;52.524;13.444;2022-10-31T01:25:18;27.13;;;15.63;;
47289;SDS011;33197;52.524;13.444;2022-10-31T01:27:45;32.75;;;16.92;;
47289;SDS011;33197;52.524;13.444;2022-10-31T01:30:12;30.90;;;15.90;;
47289;SDS011;33197;52.524;13.444;2022-10-31T01:32:40;25.63;;;15.15;;
47289;SDS011;33197;52.524;13.444;2022-10-31T01:35:07;23.38;;;15.55;;
47289;SDS011;33197;52.524;13.444;2022-10-31T01:37:34;29.60;;;14.38;;
47289;SDS011;33197;52.524;13.444;2022-10-31T01:40:02;22.75;;;14.00;;
47289;SDS011;33197;52.524;13.444;2022-10-31T01:42:30;25.85;;;13.35;;
47289;SDS011;33197;52.524;13.444;2022-10-31T01:45:00;20.58;;;12.70;;
47289;SDS011;33197;52.524;13.444;2022-10-31T01:47:33;24.38;;;13.80;;
47289;SDS011;33197;52.524;13.444;2022-10-31T01:50:04;23.25;;;13.50;;
47289;SDS011;33197;52.524;13.444;2022-10-31T01:52:38;28.70;;;14.40;;
47289;SDS011;33197;52.524;13.444;2022-10-31T01:55:18;25.10;;;13.32;;
47289;SDS011;33197;52.524;13.444;2022-10-31T01:57:57;20.33;;;12.63;;
47289;SDS011;33197;52.524;13.444;2022-10-31T02:00:26;24.27;;;14.27;;
47289;SDS011;33197;52.524;13.444;2022-10-31T02:02:54;29.92;;;15.13;;
47289;SDS011;33197;52.524;13.444;2022-10-31T02:05:23;26.48;;;14.55;;
47289;SDS011;33197;52.524;13.444;2022-10-31T02:08:13;23.33;;;14.23;;
47289;SDS011;33197;52.524;13.444;2022-10-31T02:10:42;22.13;;;12.88;;
47289;SDS011;33197;52.524;13.444;2022-10-31T02:13:09;26.65;;;14.57;;
47289;SDS011;33197;52.524;13.444;2022-10-31T02:15:39;25.73;;;13.13;;
47289;SDS011;33197;52.524;13.444;2022-10-31T02:18:07;23.70;;;13.95;;
47289;SDS011;33197;52.524;13.444;2022-10-31T02:20:38;26.48;;;14.07;;
47289;SDS011;33197;52.524;13.444;2022-10-31T02:23:20;19.30;;;12.77;;
47289;SDS011;33197;52.524;13.444;2022-10-31T02:26:19;18.45;;;12.88;;
47289;SDS011;33197;52.524;13.444;2022-10-31T02:34:44;23.33;;;12.52;;
47289;SDS011;33197;52.524;13.444;2022-10-31T02:37:30;19.73;;;11.38;;
47289;SDS011;33197;52.524;13.444;2022-10-31T02:40:15;19.98;;;11.57;;
47289;SDS011;33197;52.524;13.444;2022-10-31T02:45:47;21.45;;;12.77;;
47289;SDS011;33197;52.524;13.444;2022-10-31T02:48:28;21.17;;;11.57;;
47289;SDS011;33197;52.524;13.444;2022-10-31T02:50:59;22.90;;;12.32;;
47289;SDS011;33197;52.524;13.444;2022-10-31T02:53:31;21.35;;;12.40;;
47289;SDS011;33197;52.524;13.444;2022-10-31T02:56:03;23.55;;;13.23;;
47289;SDS011;33197;52.524;13.444;2022-10-31T02:58:35;18.27;;;12.32;;
47289;SDS011;33197;52.524;13.444;2022-10-31T03:01:07;23.40;;;12.75;;
47289;SDS011;33197;52.524;13.444;2022-10-31T03:06:29;19.08;;;11.02;;
47289;SDS011;33197;52.524;13.444;2022-10-31T03:11:32;25.88;;;12.75;;
47289;SDS011;33197;52.524;13.444;2022-10-31T03:14:12;19.42;;;12.07;;
47289;SDS011;33197;52.524;13.444;2022-10-31T03:16:49;23.45;;;11.85;;
47289;SDS011;33197;52.524;13.444;2022-10-31T03:21:47;24.65;;;12.23;;
47289;SDS011;33197;52.524;13.444;2022-10-31T03:24:17;16.65;;;11.05;;
47289;SDS011;33197;52.524;13.444;2022-10-31T03:26:50;19.85;;;11.25;;
47289;SDS011;33197;52.524;13.444;2022-10-31T03:29:20;23.35;;;11.48;;
47289;SDS011;33197;52.524;13.444;2022-10-31T03:31:51;20.55;;;11.20;;
47289;SDS011;33197;52.524;13.444;2022-10-31T03:34:24;18.30;;;10.32;;
47289;SDS011;33197;52.524;13.444;2022-10-31T03:36:53;21.83;;;11.90;;
47289;SDS011;33197;52.524;13.444;2022-10-31T03:39:22;25.67;;;11.55;;
47289;SDS011;33197;52.524;13.444;2022-10-31T03:41:53;17.77;;;11.55;;
47289;SDS011;33197;52.524;13.444;2022-10-31T03:44:21;24.02;;;11.88;;
47289;SDS011;33197;52.524;13.444;2022-10-31T03:46:50;26.02;;;10.80;;
47289;SDS011;33197;52.524;13.444;2022-10-31T03:49:17;20.85;;;11.38;;
47289;SDS011;33197;52.524;13.444;2022-10-31T03:51:46;21.00;;;10.02;;
47289;SDS011;33197;52.524;13.444;2022-10-31T03:54:36;22.42;;;9.95;;
47289;SDS011;33197;52.524;13.444;2022-10-31T03:57:18;17.73;;;9.60;;
47289;SDS011;33197;52.524;13.444;2022-10-31T03:59:57;18.63;;;11.35;;
47289;SDS011;33197;52.524;13.444;2022-10-31T04:02:33;14.07;;;9.73;;
47289;SDS011;33197;52.524;13.444;2022-10-31T04:05:02;19.02;;;10.15;;
47289;SDS011;33197;52.524;13.444;2022-10-31T04:07:31;18.02;;;10.15;;
47289;SDS011;33197;52.524;13.444;2022-10-31T04:10:00;23.85;;;10.75;;
47289;SDS011;33197;52.524;13.444;2022-10-31T04:12:29;20.23;;;10.88;;
47289;SDS011;33197;52.524;13.444;2022-10-31T04:14:57;17.85;;;10.27;;
47289;SDS011;33197;52.524;13.444;2022-10-31T04:17:27;17.33;;;9.13;;
47289;SDS011;33197;52.524;13.444;2022-10-31T04:19:58;20.83;;;12.55;;
47289;SDS011;33197;52.524;13.444;2022-10-31T04:22:27;26.27;;;12.02;;
47289;SDS011;33197;52.524;13.444;2022-10-31T04:24:54;22.77;;;11.50;;
47289;SDS011;33197;52.524;13.444;2022-10-31T04:27:38;25.02;;;10.95;;
47289;SDS011;33197;52.524;13.444;2022-10-31T04:30:06;24.40;;;10.75;;
47289;SDS011;33197;52.524;13.444;2022-10-31T04:32:33;19.95;;;11.50;;
47289;SDS011;33197;52.524;13.444;2022-10-31T04:35:00;22.83;;;10.57;;
47289;SDS011;33197;52.524;13.444;2022-10-31T04:37:27;20.15;;;11.75;;
47289;SDS011;33197;52.524;13.444;2022-10-31T04:39:55;28.15;;;11.80;;
47289;SDS011;33197;52.524;13.444;2022-10-31T04:42:22;20.60;;;10.73;;
47289;SDS011;33197;52.524;13.444;2022-10-31T04:44:49;14.65;;;9.75;;
47289;SDS011;33197;52.524;13.444;2022-10-31T04:47:16;18.75;;;10.80;;
47289;SDS011;33197;52.524;13.444;2022-10-31T04:49:43;25.08;;;11.75;;
47289;SDS011;33197;52.524;13.444;2022-10-31T04:52:11;24.45;;;12.45;;
47289;SDS011;33197;52.524;13.444;2022-10-31T04:54:38;21.63;;;11.13;;
47289;SDS011;33197;52.524;13.444;2022-10-31T04:57:05;27.33;;;13.15;;
47289;SDS011;33197;52.524;13.444;2022-10-31T04:59:32;22.23;;;12.15;;
47289;SDS011;33197;52.524;13.444;2022-10-31T05:01:59;20.13;;;11.27;;
47289;SDS011;33197;52.524;13.444;2022-10-31T05:04:26;18.33;;;10.60;;
47289;SDS011;33197;52.524;13.444;2022-10-31T05:06:54;20.70;;;12.15;;
47289;SDS011;33197;52.524;13.444;2022-10-31T05:09:21;19.10;;;11.75;;
47289;SDS011;33197;52.524;13.444;2022-10-31T05:11:48;18.95;;;10.95;;
47289;SDS011;33197;52.524;13.444;2022-10-31T05:14:15;34.70;;;12.60;;
47289;SDS011;33197;52.524;13.444;2022-10-31T05:16:42;21.80;;;12.13;;
47289;SDS011;33197;52.524;13.444;2022-10-31T05:19:09;24.67;;;12.15;;
47289;SDS011;33197;52.524;13.444;2022-10-31T05:21:36;25.65;;;12.40;;
47289;SDS011;33197;52.524;13.444;2022-10-31T05:24:04;29.60;;;12.82;;
47289;SDS011;33197;52.524;13.444;2022-10-31T05:26:31;20.77;;;12.20;;
47289;SDS011;33197;52.524;13.444;2022-10-31T05:28:58;34.03;;;13.95;;
47289;SDS011;33197;52.524;13.444;2022-10-31T05:31:25;28.33;;;14.38;;
47289;SDS011;33197;52.524;13.444;2022-10-31T05:33:52;28.13;;;14.27;;
47289;SDS011;33197;52.524;13.444;2022-10-31T05:36:19;30.08;;;12.48;;
47289;SDS011;33197;52.524;13.444;2022-10-31T05:38:46;18.83;;;13.15;;
47289;SDS011;33197;52.524;13.444;2022-10-31T05:41:14;19.88;;;12.13;;
47289;SDS011;33197;52.524;13.444;2022-10-31T05:43:41;22.30;;;11.93;;
47289;SDS011;33197;52.524;13.444;2022-10-31T05:46:08;25.05;;;13.00;;
47289;SDS011;33197;52.524;13.444;2022-10-31T05:48:35;22.23;;;12.75;;
47289;SDS011;33197;52.524;13.444;2022-10-31T05:51:02;22.92;;;12.30;;
47289;SDS011;33197;52.524;13.444;2022-10-31T05:53:29;26.08;;;13.75;;
47289;SDS011;33197;52.524;13.444;2022-10-31T05:55:56;22.42;;;12.95;;
47289;SDS011;33197;52.524;13.444;2022-10-31T05:58:24;30.20;;;12.82;;
47289;SDS011;33197;52.524;13.444;2022-10-31T06:00:51;28.08;;;13.48;;
47289;SDS011;33197;52.524;13.444;2022-10-31T06:03:18;25.65;;;13.88;;
47289;SDS011;33197;52.524;13.444;2022-10-31T06:05:45;24.85;;;14.27;;
47289;SDS011;33197;52.524;13.444;2022-10-31T06:08:19;23.52;;;15.93;;
47289;SDS011;33197;52.524;13.444;2022-10-31T06:10:47;32.65;;;14.15;;
47289;SDS011;33197;52.524;13.444;2022-10-31T06:13:14;22.42;;;12.80;;
47289;SDS011;33197;52.524;13.444;2022-10-31T06:15:41;25.70;;;11.73;;
47289;SDS011;33197;52.524;13.444;2022-10-31T06:18:08;24.88;;;12.95;;
47289;SDS011;33197;52.524;13.444;2022-10-31T06:20:35;27.88;;;13.75;;
47289;SDS011;33197;52.524;13.444;2022-10-31T06:23:03;26.50;;;14.60;;
47289;SDS011;33197;52.524;13.444;2022-10-31T06:25:31;27.35;;;14.52;;
47289;SDS011;33197;52.524;13.444;2022-10-31T06:27:59;22.55;;;14.65;;
47289;SDS011;33197;52.524;13.444;2022-10-31T06:30:26;26.75;;;15.18;;
47289;SDS011;33197;52.524;13.444;2022-10-31T06:32:53;24.75;;;14.23;;
47289;SDS011;33197;52.524;13.444;2022-10-31T06:35:21;31.60;;;16.13;;
47289;SDS011;33197;52.524;13.444;2022-10-31T06:37:52;26.73;;;14.15;;
47289;SDS011;33197;52.524;13.444;2022-10-31T06:40:20;26.27;;;14.40;;
47289;SDS011;33197;52.524;13.444;2022-10-31T06:42:47;19.48;;;12.05;;
47289;SDS011;33197;52.524;13.444;2022-10-31T06:45:14;33.83;;;14.43;;
47289;SDS011;33197;52.524;13.444;2022-10-31T06:47:41;24.73;;;14.52;;
47289;SDS011;33197;52.524;13.444;2022-10-31T06:50:29;23.38;;;14.50;;
47289;SDS011;33197;52.524;13.444;2022-10-31T06:52:57;33.95;;;14.52;;
47289;SDS011;33197;52.524;13.444;2022-10-31T06:55:25;29.80;;;14.88;;
47289;SDS011;33197;52.524;13.444;2022-10-31T06:57:53;27.13;;;13.43;;
47289;SDS011;33197;52.524;13.444;2022-10-31T07:00:29;21.88;;;12.55;;
47289;SDS011;33197;52.524;13.444;2022-10-31T07:02:58;29.38;;;13.50;;
47289;SDS011;33197;52.524;13.444;2022-10-31T07:05:32;39.03;;;15.38;;
47289;SDS011;33197;52.524;13.444;2022-10-31T07:08:01;35.20;;;15.15;;
47289;SDS011;33197;52.524;13.444;2022-10-31T07:10:31;26.88;;;14.65;;
47289;SDS011;33197;52.524;13.444;2022-10-31T07:13:05;24.10;;;15.25;;
47289;SDS011;33197;52.524;13.444;2022-10-31T07:15:34;25.35;;;14.70;;
47289;SDS011;33197;52.524;13.444;2022-10-31T07:18:03;26.92;;;14.88;;
47289;SDS011;33197;52.524;13.444;2022-10-31T07:20:32;31.42;;;14.32;;
47289;SDS011;33197;52.524;13.444;2022-10-31T07:22:59;30.17;;;15.43;;
47289;SDS011;33197;52.524;13.444;2022-10-31T07:25:28;28.88;;;13.60;;
47289;SDS011;33197;52.524;13.444;2022-10-31T07:27:55;32.67;;;15.07;;
47289;SDS011;33197;52.524;13.444;2022-10-31T07:30:23;34.90;;;15.88;;
47289;SDS011;33197;52.524;13.444;2022-10-31T07:32:50;25.38;;;13.60;;
47289;SDS011;33197;52.524;13.444;2022-10-31T07:35:18;28.17;;;14.40;;
47289;SDS011;33197;52.524;13.444;2022-10-31T07:37:47;30.85;;;14.45;;
47289;SDS011;33197;52.524;13.444;2022-10-31T07:40:15;30.65;;;14.15;;
47289;SDS011;33197;52.524;13.444;2022-10-31T07:42:43;26.20;;;15.13;;
47289;SDS011;33197;52.524;13.444;2022-10-31T07:45:16;28.90;;;14.65;;
47289;SDS011;33197;52.524;13.444;2022-10-31T07:47:45;23.27;;;13.50;;
47289;SDS011;33197;52.524;13.444;2022-10-31T07:50:14;35.70;;;15.70;;
47289;SDS011;33197;52.524;13.444;2022-10-31T07:52:42;32.67;;;16.27;;
47289;SDS011;33197;52.524;13.444;2022-10-31T07:55:10;27.35;;;16.13;;
47289;SDS011;33197;52.524;13.444;2022-10-31T07:57:37;36.17;;;17.67;;
47289;SDS011;33197;52.524;13.444;2022-10-31T08:00:05;41.60;;;17.33;;
47289;SDS011;33197;52.524;13.444;2022-10-31T08:02:33;34.22;;;16.33;;
47289;SDS011;33197;52.524;13.444;2022-10-31T08:05:00;30.27;;;14.48;;
47289;SDS011;33197;52.524;13.444;2022-10-31T08:07:35;32.83;;;15.63;;
47289;SDS011;33197;52.524;13.444;2022-10-31T08:10:07;34.40;;;16.98;;
47289;SDS011;33197;52.524;13.444;2022-10-31T08:12:35;27.75;;;16.17;;
47289;SDS011;33197;52.524;13.444;2022-10-31T08:15:02;29.42;;;16.65;;
47289;SDS011;33197;52.524;13.444;2022-10-31T08:17:29;33.58;;;16.52;;
47289;SDS011;33197;52.524;13.444;2022-10-31T08:19:56;27.77;;;16.45;;
47289;SDS011;33197;52.524;13.444;2022-10-31T08:22:23;26.73;;;16.95;;
47289;SDS011;33197;52.524;13.444;2022-10-31T08:24:50;25.10;;;15.73;;
47289;SDS011;33197;52.524;13.444;2022-10-31T08:27:17;25.60;;;16.25;;
47289;SDS011;33197;52.524;13.444;2022-10-31T08:29:44;27.58;;;16.02;;
47289;SDS011;33197;52.524;13.444;2022-10-31T08:32:12;35.85;;;17.83;;
47289;SDS011;33197;52.524;13.444;2022-10-31T08:34:39;37.35;;;18.48;;
47289;SDS011;33197;52.524;13.444;2022-10-31T08:37:06;28.50;;;16.60;;
47289;SDS011;33197;52.524;13.444;2022-10-31T08:39:33;33.40;;;17.80;;
47289;SDS011;33197;52.524;13.444;2022-10-31T08:42:00;26.83;;;17.63;;
47289;SDS011;33197;52.524;13.444;2022-10-31T08:44:27;26.55;;;15.00;;
47289;SDS011;33197;52.524;13.444;2022-10-31T08:46:55;29.85;;;18.77;;
47289;SDS011;33197;52.524;13.444;2022-10-31T08:49:26;32.00;;;18.40;;
47289;SDS011;33197;52.524;13.444;2022-10-31T08:51:56;28.83;;;15.82;;
47289;SDS011;33197;52.524;13.444;2022-10-31T08:54:23;27.38;;;17.58;;
47289;SDS011;33197;52.524;13.444;2022-10-31T08:56:53;33.15;;;19.08;;
47289;SDS011;33197;52.524;13.444;2022-10-31T08:59:22;26.65;;;17.05;;
47289;SDS011;33197;52.524;13.444;2022-10-31T09:01:49;30.35;;;17.73;;
47289;SDS011;33197;52.524;13.444;2022-10-31T09:04:16;31.85;;;18.40;;
47289;SDS011;33197;52.524;13.444;2022-10-31T09:06:43;35.47;;;20.45;;
47289;SDS011;33197;52.524;13.444;2022-10-31T09:09:30;34.47;;;19.02;;
47289;SDS011;33197;52.524;13.444;2022-10-31T09:11:57;36.13;;;20.40;;
47289;SDS011;33197;52.524;13.444;2022-10-31T09:14:25;33.58;;;17.70;;
47289;SDS011;33197;52.524;13.444;2022-10-31T09:16:53;37.10;;;20.10;;
47289;SDS011;33197;52.524;13.444;2022-10-31T09:19:20;31.40;;;19.50;;
47289;SDS011;33197;52.524;13.444;2022-10-31T09:21:47;36.80;;;19.15;;
47289;SDS011;33197;52.524;13.444;2022-10-31T09:24:14;33.45;;;18.92;;
47289;SDS011;33197;52.524;13.444;2022-10-31T09:26:41;34.33;;;19.83;;
47289;SDS011;33197;52.524;13.444;2022-10-31T09:29:08;37.00;;;19.70;;
47289;SDS011;33197;52.524;13.444;2022-10-31T09:31:36;37.42;;;20.10;;
47289;SDS011;33197;52.524;13.444;2022-10-31T09:34:10;37.65;;;20.02;;
47289;SDS011;33197;52.524;13.444;2022-10-31T09:36:37;37.33;;;21.48;;
47289;SDS011;33197;52.524;13.444;2022-10-31T09:39:05;36.20;;;20.75;;
47289;SDS011;33197;52.524;13.444;2022-10-31T09:44:50;32.22;;;19.40;;
47289;SDS011;33197;52.524;13.444;2022-10-31T09:50:05;41.80;;;20.33;;
47289;SDS011;33197;52.524;13.444;2022-10-31T09:52:40;36.58;;;22.25;;
47289;SDS011;33197;52.524;13.444;2022-10-31T09:55:14;42.90;;;20.65;;
47289;SDS011;33197;52.524;13.444;2022-10-31T09:57:43;40.72;;;20.02;;
47289;SDS011;33197;52.524;13.444;2022-10-31T10:00:16;45.20;;;24.05;;
47289;SDS011;33197;52.524;13.444;2022-10-31T10:08:31;46.45;;;26.05;;
47289;SDS011;33197;52.524;13.444;2022-10-31T10:13:59;41.28;;;23.95;;
47289;SDS011;33197;52.524;13.444;2022-10-31T10:16:39;47.97;;;26.52;;
47289;SDS011;33197;52.524;13.444;2022-10-31T10:19:14;42.47;;;27.27;;
47289;SDS011;33197;52.524;13.444;2022-10-31T10:27:36;46.13;;;27.90;;
47289;SDS011;33197;52.524;13.444;2022-10-31T10:32:51;39.88;;;25.77;;
47289;SDS011;33197;52.524;13.444;2022-10-31T10:35:38;44.45;;;26.92;;
47289;SDS011;33197;52.524;13.444;2022-10-31T10:41:11;40.15;;;24.02;;
47289;SDS011;33197;52.524;13.444;2022-10-31T10:43:41;35.10;;;21.13;;
47289;SDS011;33197;52.524;13.444;2022-10-31T10:49:16;45.63;;;25.55;;
47289;SDS011;33197;52.524;13.444;2022-10-31T10:57:32;35.33;;;22.25;;
47289;SDS011;33197;52.524;13.444;2022-10-31T11:00:15;43.13;;;23.17;;
47289;SDS011;33197;52.524;13.444;2022-10-31T11:02:45;36.60;;;20.83;;
47289;SDS011;33197;52.524;13.444;2022-10-31T11:08:01;44.80;;;24.73;;
47289;SDS011;33197;52.524;13.444;2022-10-31T11:10:29;40.20;;;22.42;;
47289;SDS011;33197;52.524;13.444;2022-10-31T11:12:58;41.30;;;24.05;;
47289;SDS011;33197;52.524;13.444;2022-10-31T11:18:22;38.42;;;21.02;;
47289;SDS011;33197;52.524;13.444;2022-10-31T11:20:57;39.55;;;21.85;;
47289;SDS011;33197;52.524;13.444;2022-10-31T11:23:26;40.72;;;23.88;;
47289;SDS011;33197;52.524;13.444;2022-10-31T11:25:55;38.15;;;20.60;;
47289;SDS011;33197;52.524;13.444;2022-10-31T11:28:24;35.90;;;20.67;;
47289;SDS011;33197;52.524;13.444;2022-10-31T11:30:55;38.15;;;22.13;;
47289;SDS011;33197;52.524;13.444;2022-10-31T11:35:56;48.30;;;21.27;;
47289;SDS011;33197;52.524;13.444;2022-10-31T11:38:28;46.88;;;22.90;;
47289;SDS011;33197;52.524;13.444;2022-10-31T11:41:17;47.20;;;24.40;;
47289;SDS011;33197;52.524;13.444;2022-10-31T11:46:47;40.50;;;23.17;;
47289;SDS011;33197;52.524;13.444;2022-10-31T11:49:20;38.85;;;19.45;;
47289;SDS011;33197;52.524;13.444;2022-10-31T11:51:51;37.08;;;20.15;;
47289;SDS011;33197;52.524;13.444;2022-10-31T11:54:21;39.50;;;21.10;;
47289;SDS011;33197;52.524;13.444;2022-10-31T11:56:48;39.50;;;22.02;;
47289;SDS011;33197;52.524;13.444;2022-10-31T11:59:22;36.40;;;20.23;;
47289;SDS011;33197;52.524;13.444;2022-10-31T12:02:00;36.97;;;19.13;;
47289;SDS011;33197;52.524;13.444;2022-10-31T12:04:34;37.92;;;23.27;;
47289;SDS011;33197;52.524;13.444;2022-10-31T12:07:07;36.50;;;18.92;;
47289;SDS011;33197;52.524;13.444;2022-10-31T12:09:35;32.17;;;19.30;;
47289;SDS011;33197;52.524;13.444;2022-10-31T12:14:51;40.75;;;20.58;;
47289;SDS011;33197;52.524;13.444;2022-10-31T12:17:42;34.75;;;20.20;;
47289;SDS011;33197;52.524;13.444;2022-10-31T12:26:06;30.65;;;17.08;;
47289;SDS011;33197;52.524;13.444;2022-10-31T12:28:45;35.00;;;18.55;;
47289;SDS011;33197;52.524;13.444;2022-10-31T12:31:34;30.48;;;18.98;;
47289;SDS011;33197;52.524;13.444;2022-10-31T12:37:05;28.92;;;18.50;;
47289;SDS011;33197;52.524;13.444;2022-10-31T12:42:20;26.40;;;16.08;;
47289;SDS011;33197;52.524;13.444;2022-10-31T12:50:12;37.28;;;17.88;;
47289;SDS011;33197;52.524;13.444;2022-10-31T12:55:28;26.25;;;16.63;;
47289;SDS011;33197;52.524;13.444;2022-10-31T12:58:21;38.08;;;18.67;;
47289;SDS011;33197;52.524;13.444;2022-10-31T13:00:53;34.47;;;18.20;;
47289;SDS011;33197;52.524;13.444;2022-10-31T13:03:58;36.58;;;17.60;;
47289;SDS011;33197;52.524;13.444;2022-10-31T13:06:50;28.52;;;17.17;;
47289;SDS011;33197;52.524;13.444;2022-10-31T13:09:22;30.75;;;16.50;;
47289;SDS011;33197;52.524;13.444;2022-10-31T13:11:56;26.63;;;15.82;;
47289;SDS011;33197;52.524;13.444;2022-10-31T13:17:24;26.25;;;14.77;;
47289;SDS011;33197;52.524;13.444;2022-10-31T13:19:58;27.77;;;16.55;;
47289;SDS011;33197;52.524;13.444;2022-10-31T13:22:39;26.92;;;16.55;;
47289;SDS011;33197;52.524;13.444;2022-10-31T13:27:56;24.52;;;15.55;;
47289;SDS011;33197;52.524;13.444;2022-10-31T13:30:26;25.73;;;14.80;;
47289;SDS011;33197;52.524;13.444;2022-10-31T13:35:43;27.05;;;15.38;;
47289;SDS011;33197;52.524;13.444;2022-10-31T13:38:34;31.38;;;18.98;;
47289;SDS011;33197;52.524;13.444;2022-10-31T13:44:04;36.83;;;17.10;;
47289;SDS011;33197;52.524;13.444;2022-10-31T13:46:37;29.50;;;17.77;;
47289;SDS011;33197;52.524;13.444;2022-10-31T13:51:50;29.15;;;15.95;;
47289;SDS011;33197;52.524;13.444;2022-10-31T13:54:31;31.35;;;15.98;;
47289;SDS011;33197;52.524;13.444;2022-10-31T13:56:59;35.78;;;16.85;;
47289;SDS011;33197;52.524;13.444;2022-10-31T13:59:27;32.03;;;16.25;;
47289;SDS011;33197;52.524;13.444;2022-10-31T14:01:56;26.95;;;16.17;;
47289;SDS011;33197;52.524;13.444;2022-10-31T14:04:28;31.23;;;16.60;;
47289;SDS011;33197;52.524;13.444;2022-10-31T14:07:12;25.88;;;15.90;;
47289;SDS011;33197;52.524;13.444;2022-10-31T14:12:22;48.83;;;20.38;;
47289;SDS011;33197;52.524;13.444;2022-10-31T14:14:54;34.90;;;18.13;;
47289;SDS011;33197;52.524;13.444;2022-10-31T14:19:58;36.15;;;16.63;;
47289;SDS011;33197;52.524;13.444;2022-10-31T14:22:30;30.30;;;16.83;;
47289;SDS011;33197;52.524;13.444;2022-10-31T14:24:57;41.92;;;18.67;;
47289;SDS011;33197;52.524;13.444;2022-10-31T14:29:54;55.92;;;19.67;;
47289;SDS011;33197;52.524;13.444;2022-10-31T14:32:22;54.78;;;18.40;;
47289;SDS011;33197;52.524;13.444;2022-10-31T14:44:02;41.20;;;16.80;;
47289;SDS011;33197;52.524;13.444;2022-10-31T14:46:08;40.30;;;24.02;;
47289;SDS011;33197;52.524;13.444;2022-10-31T14:49:16;35.38;;;22.27;;
47289;SDS011;33197;52.524;13.444;2022-10-31T14:51:49;31.85;;;20.63;;
47289;SDS011;33197;52.524;13.444;2022-10-31T14:54:20;38.63;;;20.75;;
47289;SDS011;33197;52.524;13.444;2022-10-31T14:56:53;40.03;;;24.97;;
47289;SDS011;33197;52.524;13.444;2022-10-31T14:59:25;40.03;;;24.45;;
47289;SDS011;33197;52.524;13.444;2022-10-31T15:02:12;39.75;;;24.90;;
47289;SDS011;33197;52.524;13.444;2022-10-31T15:04:41;33.13;;;23.20;;
47289;SDS011;33197;52.524;13.444;2022-10-31T15:07:18;36.20;;;21.63;;
47289;SDS011;33197;52.524;13.444;2022-10-31T15:10:01;38.35;;;25.05;;
47289;SDS011;33197;52.524;13.444;2022-10-31T15:12:34;41.30;;;28.25;;
47289;SDS011;33197;52.524;13.444;2022-10-31T15:15:14;36.88;;;24.40;;
47289;SDS011;33197;52.524;13.444;2022-10-31T15:17:45;39.13;;;24.08;;
47289;SDS011;33197;52.524;13.444;2022-10-31T15:20:17;34.92;;;22.65;;
47289;SDS011;33197;52.524;13.444;2022-10-31T15:22:47;31.52;;;22.08;;
47289;SDS011;33197;52.524;13.444;2022-10-31T15:25:18;36.30;;;24.73;;
47289;SDS011;33197;52.524;13.444;2022-10-31T15:27:48;36.70;;;26.52;;
47289;SDS011;33197;52.524;13.444;2022-10-31T15:30:20;37.85;;;26.13;;
47289;SDS011;33197;52.524;13.444;2022-10-31T15:32:54;35.38;;;24.40;;
47289;SDS011;33197;52.524;13.444;2022-10-31T15:35:28;37.53;;;24.52;;
47289;SDS011;33197;52.524;13.444;2022-10-31T15:37:57;37.10;;;23.60;;
47289;SDS011;33197;52.524;13.444;2022-10-31T15:40:25;36.03;;;24.33;;
47289;SDS011;33197;52.524;13.444;2022-10-31T15:42:57;40.33;;;26.58;;
47289;SDS011;33197;52.524;13.444;2022-10-31T15:45:26;35.78;;;24.35;;
47289;SDS011;33197;52.524;13.444;2022-10-31T15:48:01;35.45;;;22.92;;
47289;SDS011;33197;52.524;13.444;2022-10-31T15:50:38;40.75;;;25.80;;
47289;SDS011;33197;52.524;13.444;2022-10-31T15:53:22;37.15;;;24.88;;
47289;SDS011;33197;52.524;13.444;2022-10-31T15:55:52;34.00;;;22.13;;
47289;SDS011;33197;52.524;13.444;2022-10-31T15:58:21;44.08;;;27.35;;
47289;SDS011;33197;52.524;13.444;2022-10-31T16:01:06;39.90;;;26.65;;
47289;SDS011;33197;52.524;13.444;2022-10-31T16:03:56;40.60;;;28.05;;
47289;SDS011;33197;52.524;13.444;2022-10-31T16:06:26;38.17;;;24.55;;
47289;SDS011;33197;52.524;13.444;2022-10-31T16:08:53;51.25;;;31.20;;
47289;SDS011;33197;52.524;13.444;2022-10-31T16:11:22;39.97;;;27.45;;
47289;SDS011;33197;52.524;13.444;2022-10-31T16:13:53;39.72;;;27.45;;
47289;SDS011;33197;52.524;13.444;2022-10-31T16:16:21;40.45;;;26.65;;
47289;SDS011;33197;52.524;13.444;2022-10-31T16:19:04;40.75;;;25.15;;
47289;SDS011;33197;52.524;13.444;2022-10-31T16:21:36;41.53;;;27.52;;
47289;SDS011;33197;52.524;13.444;2022-10-31T16:24:05;34.08;;;23.60;;
47289;SDS011;33197;52.524;13.444;2022-10-31T16:26:41;41.72;;;25.77;;